sensor_id;sensor_type;location;lat;lon;timestamp;P1;durP1;ratioP1;P2;durP2;ratioP2
9076;SDS011;4574;51.072;17.174;2023-07-20T00:02:04;2.33;;;1.80;;
9076;SDS011;4574;51.072;17.174;2023-07-20T00:04:34;3.27;;;1.60;;
9076;SDS011;4574;51.072;17.174;2023-07-20T00:07:08;2.77;;;1.50;;
9076;SDS011;4574;51.072;17.174;2023-07-20T00:09:41;3.53;;;1.63;;
9076;SDS011;4574;51.072;17.174;2023-07-20T00:12:09;3.03;;;1.97;;
9076;SDS011;4574;51.072;17.174;2023-07-20T00:14:38;1.97;;;1.60;;
9076;SDS011;4574;51.072;17.174;2023-07-20T00:17:06;3.07;;;1.83;;
9076;SDS011;4574;51.072;17.174;2023-07-20T00:19:35;4.03;;;3.13;;
9076;SDS011;4574;51.072;17.174;2023-07-20T00:22:04;4.00;;;2.20;;
9076;SDS011;4574;51.072;17.174;2023-07-20T00:24:32;5.80;;;2.10;;
9076;SDS011;4574;51.072;17.174;2023-07-20T00:27:02;2.53;;;1.60;;
9076;SDS011;4574;51.072;17.174;2023-07-20T00:29:31;2.53;;;2.17;;
9076;SDS011;4574;51.072;17.174;2023-07-20T00:32:00;5.27;;;1.80;;
9076;SDS011;4574;51.072;17.174;2023-07-20T00:34:28;2.17;;;1.97;;
9076;SDS011;4574;51.072;17.174;2023-07-20T00:36:56;3.90;;;1.80;;
9076;SDS011;4574;51.072;17.174;2023-07-20T00:39:25;2.03;;;1.67;;
9076;SDS011;4574;51.072;17.174;2023-07-20T00:41:53;2.73;;;1.83;;
9076;SDS011;4574;51.072;17.174;2023-07-20T00:44:23;6.60;;;1.90;;
9076;SDS011;4574;51.072;17.174;2023-07-20T00:46:52;3.47;;;1.53;;
9076;SDS011;4574;51.072;17.174;2023-07-20T00:49:20;3.90;;;1.90;;
9076;SDS011;4574;51.072;17.174;2023-07-20T00:51:50;5.07;;;2.20;;
9076;SDS011;4574;51.072;17.174;2023-07-20T00:54:19;4.07;;;3.20;;
9076;SDS011;4574;51.072;17.174;2023-07-20T00:56:47;3.23;;;1.80;;
9076;SDS011;4574;51.072;17.174;2023-07-20T00:59:16;42.37;;;31.60;;
9076;SDS011;4574;51.072;17.174;2023-07-20T01:01:47;109.87;;;70.07;;
9076;SDS011;4574;51.072;17.174;2023-07-20T01:04:16;44.57;;;28.03;;
9076;SDS011;4574;51.072;17.174;2023-07-20T01:06:48;19.23;;;12.50;;
9076;SDS011;4574;51.072;17.174;2023-07-20T01:09:27;8.73;;;6.03;;
9076;SDS011;4574;51.072;17.174;2023-07-20T01:12:02;2.97;;;2.13;;
9076;SDS011;4574;51.072;17.174;2023-07-20T01:14:36;3.63;;;1.67;;
9076;SDS011;4574;51.072;17.174;2023-07-20T01:17:07;3.23;;;1.50;;
9076;SDS011;4574;51.072;17.174;2023-07-20T01:19:36;3.00;;;2.03;;
9076;SDS011;4574;51.072;17.174;2023-07-20T01:22:09;5.90;;;1.87;;
9076;SDS011;4574;51.072;17.174;2023-07-20T01:24:51;5.27;;;2.07;;
9076;SDS011;4574;51.072;17.174;2023-07-20T01:27:53;2.80;;;2.00;;
9076;SDS011;4574;51.072;17.174;2023-07-20T01:33:38;4.90;;;2.33;;
9076;SDS011;4574;51.072;17.174;2023-07-20T01:36:09;6.40;;;2.10;;
9076;SDS011;4574;51.072;17.174;2023-07-20T01:38:38;2.83;;;2.07;;
9076;SDS011;4574;51.072;17.174;2023-07-20T01:41:07;3.40;;;1.90;;
9076;SDS011;4574;51.072;17.174;2023-07-20T01:43:37;3.57;;;2.03;;
9076;SDS011;4574;51.072;17.174;2023-07-20T01:46:05;2.37;;;1.73;;
9076;SDS011;4574;51.072;17.174;2023-07-20T01:48:35;1.73;;;1.53;;
9076;SDS011;4574;51.072;17.174;2023-07-20T01:51:04;4.97;;;1.80;;
9076;SDS011;4574;51.072;17.174;2023-07-20T01:53:33;3.70;;;1.83;;
9076;SDS011;4574;51.072;17.174;2023-07-20T01:56:01;2.43;;;1.80;;
9076;SDS011;4574;51.072;17.174;2023-07-20T01:58:30;2.57;;;1.70;;
9076;SDS011;4574;51.072;17.174;2023-07-20T02:00:58;6.33;;;2.40;;
9076;SDS011;4574;51.072;17.174;2023-07-20T02:03:28;3.93;;;1.90;;
9076;SDS011;4574;51.072;17.174;2023-07-20T02:05:57;4.50;;;2.00;;
9076;SDS011;4574;51.072;17.174;2023-07-20T02:08:26;1.77;;;1.67;;
9076;SDS011;4574;51.072;17.174;2023-07-20T02:10:55;2.20;;;1.70;;
9076;SDS011;4574;51.072;17.174;2023-07-20T02:13:23;5.40;;;1.77;;
9076;SDS011;4574;51.072;17.174;2023-07-20T02:15:51;1.63;;;1.53;;
9076;SDS011;4574;51.072;17.174;2023-07-20T02:18:20;1.70;;;1.60;;
9076;SDS011;4574;51.072;17.174;2023-07-20T02:20:48;2.87;;;2.10;;
9076;SDS011;4574;51.072;17.174;2023-07-20T02:23:19;4.10;;;2.00;;
9076;SDS011;4574;51.072;17.174;2023-07-20T02:25:48;2.83;;;2.00;;
9076;SDS011;4574;51.072;17.174;2023-07-20T02:28:16;2.50;;;1.77;;
9076;SDS011;4574;51.072;17.174;2023-07-20T02:30:45;3.67;;;1.87;;
9076;SDS011;4574;51.072;17.174;2023-07-20T02:33:14;3.37;;;2.13;;
9076;SDS011;4574;51.072;17.174;2023-07-20T02:35:42;2.20;;;2.00;;
9076;SDS011;4574;51.072;17.174;2023-07-20T02:38:11;5.37;;;2.00;;
9076;SDS011;4574;51.072;17.174;2023-07-20T02:40:41;6.67;;;2.40;;
9076;SDS011;4574;51.072;17.174;2023-07-20T02:43:09;2.80;;;2.03;;
9076;SDS011;4574;51.072;17.174;2023-07-20T02:45:40;4.30;;;2.23;;
9076;SDS011;4574;51.072;17.174;2023-07-20T02:48:12;4.20;;;2.40;;
9076;SDS011;4574;51.072;17.174;2023-07-20T02:50:41;3.87;;;2.10;;
9076;SDS011;4574;51.072;17.174;2023-07-20T02:53:11;7.53;;;2.80;;
9076;SDS011;4574;51.072;17.174;2023-07-20T02:55:41;2.90;;;2.03;;
9076;SDS011;4574;51.072;17.174;2023-07-20T02:58:09;3.83;;;1.80;;
9076;SDS011;4574;51.072;17.174;2023-07-20T03:00:38;4.20;;;2.37;;
9076;SDS011;4574;51.072;17.174;2023-07-20T03:03:07;4.67;;;2.03;;
9076;SDS011;4574;51.072;17.174;2023-07-20T03:05:36;2.37;;;1.57;;
9076;SDS011;4574;51.072;17.174;2023-07-20T03:08:08;2.40;;;1.77;;
9076;SDS011;4574;51.072;17.174;2023-07-20T03:10:41;3.53;;;2.17;;
9076;SDS011;4574;51.072;17.174;2023-07-20T03:13:09;4.50;;;2.50;;
9076;SDS011;4574;51.072;17.174;2023-07-20T03:15:39;3.40;;;1.77;;
9076;SDS011;4574;51.072;17.174;2023-07-20T03:18:08;5.63;;;2.10;;
9076;SDS011;4574;51.072;17.174;2023-07-20T03:20:37;4.77;;;2.17;;
9076;SDS011;4574;51.072;17.174;2023-07-20T03:23:06;9.77;;;2.47;;
9076;SDS011;4574;51.072;17.174;2023-07-20T03:25:35;4.20;;;2.07;;
9076;SDS011;4574;51.072;17.174;2023-07-20T03:28:06;4.33;;;2.17;;
9076;SDS011;4574;51.072;17.174;2023-07-20T03:30:35;5.70;;;2.13;;
9076;SDS011;4574;51.072;17.174;2023-07-20T03:33:03;3.63;;;2.20;;
9076;SDS011;4574;51.072;17.174;2023-07-20T03:35:31;3.63;;;2.13;;
9076;SDS011;4574;51.072;17.174;2023-07-20T03:38:00;2.77;;;1.83;;
9076;SDS011;4574;51.072;17.174;2023-07-20T03:40:28;2.23;;;1.90;;
9076;SDS011;4574;51.072;17.174;2023-07-20T03:42:57;3.63;;;2.10;;
9076;SDS011;4574;51.072;17.174;2023-07-20T03:45:27;4.37;;;2.43;;
9076;SDS011;4574;51.072;17.174;2023-07-20T03:47:55;2.57;;;1.80;;
9076;SDS011;4574;51.072;17.174;2023-07-20T03:50:24;4.00;;;2.10;;
9076;SDS011;4574;51.072;17.174;2023-07-20T03:52:52;3.70;;;2.30;;
9076;SDS011;4574;51.072;17.174;2023-07-20T03:55:21;3.47;;;2.17;;
9076;SDS011;4574;51.072;17.174;2023-07-20T03:57:52;4.80;;;2.00;;
9076;SDS011;4574;51.072;17.174;2023-07-20T04:00:21;8.00;;;2.20;;
9076;SDS011;4574;51.072;17.174;2023-07-20T04:02:51;2.33;;;1.83;;
9076;SDS011;4574;51.072;17.174;2023-07-20T04:05:20;3.67;;;2.00;;
9076;SDS011;4574;51.072;17.174;2023-07-20T04:07:49;6.37;;;2.37;;
9076;SDS011;4574;51.072;17.174;2023-07-20T04:10:18;4.97;;;2.10;;
9076;SDS011;4574;51.072;17.174;2023-07-20T04:12:46;6.20;;;2.30;;
9076;SDS011;4574;51.072;17.174;2023-07-20T04:15:15;4.70;;;2.70;;
9076;SDS011;4574;51.072;17.174;2023-07-20T04:17:44;5.00;;;2.53;;
9076;SDS011;4574;51.072;17.174;2023-07-20T04:20:14;5.63;;;2.33;;
9076;SDS011;4574;51.072;17.174;2023-07-20T04:22:44;5.70;;;2.50;;
9076;SDS011;4574;51.072;17.174;2023-07-20T04:25:13;7.53;;;3.17;;
9076;SDS011;4574;51.072;17.174;2023-07-20T04:27:41;7.43;;;2.40;;
9076;SDS011;4574;51.072;17.174;2023-07-20T04:30:10;8.60;;;2.67;;
9076;SDS011;4574;51.072;17.174;2023-07-20T04:32:40;7.37;;;2.67;;
9076;SDS011;4574;51.072;17.174;2023-07-20T04:35:16;7.97;;;2.77;;
9076;SDS011;4574;51.072;17.174;2023-07-20T04:37:45;5.07;;;2.50;;
9076;SDS011;4574;51.072;17.174;2023-07-20T04:40:15;6.43;;;3.07;;
9076;SDS011;4574;51.072;17.174;2023-07-20T04:42:44;7.97;;;2.53;;
9076;SDS011;4574;51.072;17.174;2023-07-20T04:45:13;3.40;;;2.47;;
9076;SDS011;4574;51.072;17.174;2023-07-20T04:47:41;3.70;;;2.73;;
9076;SDS011;4574;51.072;17.174;2023-07-20T04:50:10;5.13;;;2.73;;
9076;SDS011;4574;51.072;17.174;2023-07-20T04:52:40;9.80;;;2.53;;
9076;SDS011;4574;51.072;17.174;2023-07-20T04:55:09;10.23;;;3.33;;
9076;SDS011;4574;51.072;17.174;2023-07-20T04:57:39;5.47;;;2.70;;
9076;SDS011;4574;51.072;17.174;2023-07-20T05:00:14;6.03;;;3.03;;
9076;SDS011;4574;51.072;17.174;2023-07-20T05:02:44;5.23;;;2.87;;
9076;SDS011;4574;51.072;17.174;2023-07-20T05:05:14;3.97;;;2.83;;
9076;SDS011;4574;51.072;17.174;2023-07-20T05:07:44;5.90;;;3.10;;
9076;SDS011;4574;51.072;17.174;2023-07-20T05:10:13;7.40;;;3.10;;
9076;SDS011;4574;51.072;17.174;2023-07-20T05:12:41;7.40;;;2.70;;
9076;SDS011;4574;51.072;17.174;2023-07-20T05:15:10;4.90;;;2.53;;
9076;SDS011;4574;51.072;17.174;2023-07-20T05:17:38;3.83;;;3.30;;
9076;SDS011;4574;51.072;17.174;2023-07-20T05:20:07;5.60;;;3.83;;
9076;SDS011;4574;51.072;17.174;2023-07-20T05:22:40;4.73;;;3.00;;
9076;SDS011;4574;51.072;17.174;2023-07-20T05:25:10;8.67;;;2.97;;
9076;SDS011;4574;51.072;17.174;2023-07-20T05:27:39;8.90;;;3.30;;
9076;SDS011;4574;51.072;17.174;2023-07-20T05:30:09;6.10;;;3.30;;
9076;SDS011;4574;51.072;17.174;2023-07-20T05:32:38;7.50;;;3.40;;
9076;SDS011;4574;51.072;17.174;2023-07-20T05:35:07;9.43;;;3.60;;
9076;SDS011;4574;51.072;17.174;2023-07-20T05:37:38;6.37;;;3.53;;
9076;SDS011;4574;51.072;17.174;2023-07-20T05:40:07;4.07;;;2.90;;
9076;SDS011;4574;51.072;17.174;2023-07-20T05:42:40;3.33;;;2.90;;
9076;SDS011;4574;51.072;17.174;2023-07-20T05:45:09;8.53;;;3.37;;
9076;SDS011;4574;51.072;17.174;2023-07-20T05:47:38;9.57;;;2.77;;
9076;SDS011;4574;51.072;17.174;2023-07-20T05:50:07;7.73;;;3.27;;
9076;SDS011;4574;51.072;17.174;2023-07-20T05:52:36;5.07;;;3.00;;
9076;SDS011;4574;51.072;17.174;2023-07-20T05:55:06;7.93;;;3.13;;
9076;SDS011;4574;51.072;17.174;2023-07-20T05:57:36;5.70;;;3.13;;
9076;SDS011;4574;51.072;17.174;2023-07-20T06:00:11;4.77;;;3.30;;
9076;SDS011;4574;51.072;17.174;2023-07-20T06:02:41;6.27;;;3.10;;
9076;SDS011;4574;51.072;17.174;2023-07-20T06:05:10;5.70;;;3.87;;
9076;SDS011;4574;51.072;17.174;2023-07-20T06:07:38;5.77;;;3.07;;
9076;SDS011;4574;51.072;17.174;2023-07-20T06:10:07;5.37;;;3.03;;
9076;SDS011;4574;51.072;17.174;2023-07-20T06:12:36;6.80;;;3.00;;
9076;SDS011;4574;51.072;17.174;2023-07-20T06:15:06;6.37;;;3.60;;
9076;SDS011;4574;51.072;17.174;2023-07-20T06:17:54;6.60;;;3.23;;
9076;SDS011;4574;51.072;17.174;2023-07-20T06:20:25;11.60;;;4.53;;
9076;SDS011;4574;51.072;17.174;2023-07-20T06:22:53;5.30;;;3.43;;
9076;SDS011;4574;51.072;17.174;2023-07-20T06:25:22;7.63;;;2.97;;
9076;SDS011;4574;51.072;17.174;2023-07-20T06:27:51;4.47;;;2.63;;
9076;SDS011;4574;51.072;17.174;2023-07-20T06:30:20;12.93;;;5.43;;
9076;SDS011;4574;51.072;17.174;2023-07-20T06:32:51;7.20;;;2.83;;
9076;SDS011;4574;51.072;17.174;2023-07-20T06:35:20;4.70;;;3.43;;
9076;SDS011;4574;51.072;17.174;2023-07-20T06:37:48;8.33;;;3.23;;
9076;SDS011;4574;51.072;17.174;2023-07-20T06:40:17;4.27;;;3.00;;
9076;SDS011;4574;51.072;17.174;2023-07-20T06:42:49;4.33;;;2.67;;
9076;SDS011;4574;51.072;17.174;2023-07-20T06:45:20;6.03;;;4.10;;
9076;SDS011;4574;51.072;17.174;2023-07-20T06:47:51;5.87;;;4.30;;
9076;SDS011;4574;51.072;17.174;2023-07-20T06:50:19;5.90;;;3.50;;
9076;SDS011;4574;51.072;17.174;2023-07-20T06:52:52;4.13;;;3.40;;
9076;SDS011;4574;51.072;17.174;2023-07-20T06:55:24;6.20;;;3.70;;
9076;SDS011;4574;51.072;17.174;2023-07-20T06:57:57;8.60;;;4.10;;
9076;SDS011;4574;51.072;17.174;2023-07-20T07:00:25;4.70;;;4.30;;
9076;SDS011;4574;51.072;17.174;2023-07-20T07:02:56;4.87;;;4.00;;
9076;SDS011;4574;51.072;17.174;2023-07-20T07:05:24;7.27;;;3.97;;
9076;SDS011;4574;51.072;17.174;2023-07-20T07:08:02;9.40;;;3.80;;
9076;SDS011;4574;51.072;17.174;2023-07-20T07:10:31;4.03;;;3.30;;
9076;SDS011;4574;51.072;17.174;2023-07-20T07:13:00;5.57;;;4.10;;
9076;SDS011;4574;51.072;17.174;2023-07-20T07:15:31;6.80;;;3.57;;
9076;SDS011;4574;51.072;17.174;2023-07-20T07:18:02;9.33;;;3.90;;
9076;SDS011;4574;51.072;17.174;2023-07-20T07:20:31;5.00;;;3.87;;
9076;SDS011;4574;51.072;17.174;2023-07-20T07:22:59;4.67;;;3.70;;
9076;SDS011;4574;51.072;17.174;2023-07-20T07:25:28;5.80;;;4.10;;
9076;SDS011;4574;51.072;17.174;2023-07-20T07:27:59;9.47;;;4.80;;
9076;SDS011;4574;51.072;17.174;2023-07-20T07:30:29;4.10;;;3.60;;
9076;SDS011;4574;51.072;17.174;2023-07-20T07:33:02;5.67;;;3.10;;
9076;SDS011;4574;51.072;17.174;2023-07-20T07:35:33;4.67;;;3.80;;
9076;SDS011;4574;51.072;17.174;2023-07-20T07:38:03;4.23;;;3.50;;
9076;SDS011;4574;51.072;17.174;2023-07-20T07:40:54;3.87;;;3.13;;
9076;SDS011;4574;51.072;17.174;2023-07-20T07:43:23;5.03;;;3.23;;
9076;SDS011;4574;51.072;17.174;2023-07-20T07:45:55;5.87;;;2.70;;
9076;SDS011;4574;51.072;17.174;2023-07-20T07:48:25;5.10;;;3.40;;
9076;SDS011;4574;51.072;17.174;2023-07-20T07:50:53;4.03;;;3.33;;
9076;SDS011;4574;51.072;17.174;2023-07-20T07:53:22;4.13;;;3.33;;
9076;SDS011;4574;51.072;17.174;2023-07-20T07:55:52;5.73;;;3.27;;
9076;SDS011;4574;51.072;17.174;2023-07-20T07:58:21;3.90;;;2.97;;
9076;SDS011;4574;51.072;17.174;2023-07-20T08:00:49;8.10;;;3.07;;
9076;SDS011;4574;51.072;17.174;2023-07-20T08:03:18;5.23;;;3.37;;
9076;SDS011;4574;51.072;17.174;2023-07-20T08:05:48;6.97;;;3.10;;
9076;SDS011;4574;51.072;17.174;2023-07-20T08:08:17;4.37;;;2.40;;
9076;SDS011;4574;51.072;17.174;2023-07-20T08:10:46;5.13;;;3.00;;
9076;SDS011;4574;51.072;17.174;2023-07-20T08:13:15;6.03;;;3.17;;
9076;SDS011;4574;51.072;17.174;2023-07-20T08:15:45;3.97;;;2.33;;
9076;SDS011;4574;51.072;17.174;2023-07-20T08:18:19;5.40;;;2.47;;
9076;SDS011;4574;51.072;17.174;2023-07-20T08:20:50;3.77;;;2.63;;
9076;SDS011;4574;51.072;17.174;2023-07-20T08:23:19;5.07;;;2.33;;
9076;SDS011;4574;51.072;17.174;2023-07-20T08:25:47;9.00;;;2.63;;
9076;SDS011;4574;51.072;17.174;2023-07-20T08:28:16;7.73;;;2.57;;
9076;SDS011;4574;51.072;17.174;2023-07-20T08:30:45;2.57;;;2.33;;
9076;SDS011;4574;51.072;17.174;2023-07-20T08:33:15;5.67;;;2.83;;
9076;SDS011;4574;51.072;17.174;2023-07-20T08:35:45;3.60;;;2.30;;
9076;SDS011;4574;51.072;17.174;2023-07-20T08:38:15;3.23;;;2.30;;
9076;SDS011;4574;51.072;17.174;2023-07-20T08:40:44;5.90;;;2.40;;
9076;SDS011;4574;51.072;17.174;2023-07-20T08:43:14;2.73;;;2.30;;
9076;SDS011;4574;51.072;17.174;2023-07-20T08:45:44;3.13;;;2.20;;
9076;SDS011;4574;51.072;17.174;2023-07-20T08:48:13;2.80;;;2.10;;
9076;SDS011;4574;51.072;17.174;2023-07-20T08:50:43;4.50;;;1.87;;
9076;SDS011;4574;51.072;17.174;2023-07-20T08:53:15;2.27;;;1.87;;
9076;SDS011;4574;51.072;17.174;2023-07-20T08:55:43;3.53;;;1.90;;
9076;SDS011;4574;51.072;17.174;2023-07-20T08:58:13;5.63;;;2.60;;
9076;SDS011;4574;51.072;17.174;2023-07-20T09:00:43;3.80;;;2.60;;
9076;SDS011;4574;51.072;17.174;2023-07-20T09:03:13;9.37;;;2.80;;
9076;SDS011;4574;51.072;17.174;2023-07-20T09:05:42;5.23;;;2.10;;
9076;SDS011;4574;51.072;17.174;2023-07-20T09:08:12;2.80;;;1.53;;
9076;SDS011;4574;51.072;17.174;2023-07-20T09:10:42;1.90;;;1.50;;
9076;SDS011;4574;51.072;17.174;2023-07-20T09:13:13;2.37;;;2.00;;
9076;SDS011;4574;51.072;17.174;2023-07-20T09:15:46;2.03;;;1.50;;
9076;SDS011;4574;51.072;17.174;2023-07-20T09:18:23;1.63;;;1.50;;
9076;SDS011;4574;51.072;17.174;2023-07-20T09:20:52;4.70;;;1.60;;
9076;SDS011;4574;51.072;17.174;2023-07-20T09:23:22;2.90;;;1.73;;
9076;SDS011;4574;51.072;17.174;2023-07-20T09:26:00;1.80;;;1.70;;
9076;SDS011;4574;51.072;17.174;2023-07-20T09:28:29;1.90;;;1.80;;
9076;SDS011;4574;51.072;17.174;2023-07-20T09:31:07;1.60;;;1.43;;
9076;SDS011;4574;51.072;17.174;2023-07-20T09:33:44;2.37;;;1.43;;
9076;SDS011;4574;51.072;17.174;2023-07-20T09:36:16;1.77;;;1.60;;
9076;SDS011;4574;51.072;17.174;2023-07-20T09:39:04;1.80;;;1.40;;
9076;SDS011;4574;51.072;17.174;2023-07-20T09:41:40;1.70;;;1.60;;
9076;SDS011;4574;51.072;17.174;2023-07-20T09:44:13;2.17;;;1.93;;
9076;SDS011;4574;51.072;17.174;2023-07-20T09:46:46;2.33;;;1.90;;
9076;SDS011;4574;51.072;17.174;2023-07-20T09:49:18;2.60;;;1.60;;
9076;SDS011;4574;51.072;17.174;2023-07-20T09:51:49;2.00;;;1.67;;
9076;SDS011;4574;51.072;17.174;2023-07-20T09:54:18;1.60;;;1.50;;
9076;SDS011;4574;51.072;17.174;2023-07-20T09:56:51;1.63;;;1.10;;
9076;SDS011;4574;51.072;17.174;2023-07-20T09:59:20;1.70;;;1.53;;
9076;SDS011;4574;51.072;17.174;2023-07-20T10:01:49;2.10;;;1.63;;
9076;SDS011;4574;51.072;17.174;2023-07-20T10:04:19;2.37;;;1.70;;
9076;SDS011;4574;51.072;17.174;2023-07-20T10:06:50;1.23;;;1.13;;
9076;SDS011;4574;51.072;17.174;2023-07-20T10:09:22;1.70;;;1.40;;
9076;SDS011;4574;51.072;17.174;2023-07-20T10:11:53;2.33;;;1.27;;
9076;SDS011;4574;51.072;17.174;2023-07-20T10:14:41;2.77;;;1.30;;
9076;SDS011;4574;51.072;17.174;2023-07-20T10:17:19;1.30;;;1.20;;
9076;SDS011;4574;51.072;17.174;2023-07-20T10:19:50;2.10;;;1.27;;
9076;SDS011;4574;51.072;17.174;2023-07-20T10:22:24;1.47;;;1.37;;
9076;SDS011;4574;51.072;17.174;2023-07-20T10:24:54;1.53;;;1.40;;
9076;SDS011;4574;51.072;17.174;2023-07-20T10:27:27;1.80;;;1.20;;
9076;SDS011;4574;51.072;17.174;2023-07-20T10:29:56;2.50;;;1.00;;
9076;SDS011;4574;51.072;17.174;2023-07-20T10:32:28;1.40;;;1.30;;
9076;SDS011;4574;51.072;17.174;2023-07-20T10:34:57;1.20;;;1.10;;
9076;SDS011;4574;51.072;17.174;2023-07-20T10:40:23;1.07;;;1.00;;
9076;SDS011;4574;51.072;17.174;2023-07-20T10:42:57;1.30;;;1.20;;
9076;SDS011;4574;51.072;17.174;2023-07-20T10:45:34;0.97;;;0.97;;
9076;SDS011;4574;51.072;17.174;2023-07-20T10:48:18;1.17;;;1.00;;
9076;SDS011;4574;51.072;17.174;2023-07-20T10:53:35;1.33;;;0.70;;
9076;SDS011;4574;51.072;17.174;2023-07-20T10:56:08;2.53;;;0.80;;
9076;SDS011;4574;51.072;17.174;2023-07-20T10:58:49;1.67;;;1.00;;
9076;SDS011;4574;51.072;17.174;2023-07-20T11:01:17;1.40;;;1.20;;
9076;SDS011;4574;51.072;17.174;2023-07-20T11:03:48;2.10;;;0.97;;
9076;SDS011;4574;51.072;17.174;2023-07-20T11:06:31;1.17;;;0.90;;
9076;SDS011;4574;51.072;17.174;2023-07-20T11:09:08;0.87;;;0.87;;
9076;SDS011;4574;51.072;17.174;2023-07-20T11:11:38;1.00;;;0.90;;
9076;SDS011;4574;51.072;17.174;2023-07-20T11:14:08;2.40;;;1.00;;
9076;SDS011;4574;51.072;17.174;2023-07-20T11:16:41;1.10;;;0.90;;
9076;SDS011;4574;51.072;17.174;2023-07-20T11:19:14;2.40;;;1.07;;
9076;SDS011;4574;51.072;17.174;2023-07-20T11:21:49;1.60;;;1.00;;
9076;SDS011;4574;51.072;17.174;2023-07-20T11:24:29;1.17;;;1.07;;
9076;SDS011;4574;51.072;17.174;2023-07-20T11:26:58;1.17;;;1.00;;
9076;SDS011;4574;51.072;17.174;2023-07-20T11:29:29;2.53;;;1.10;;
9076;SDS011;4574;51.072;17.174;2023-07-20T11:32:00;1.60;;;1.10;;
9076;SDS011;4574;51.072;17.174;2023-07-20T11:34:32;1.70;;;1.43;;
9076;SDS011;4574;51.072;17.174;2023-07-20T11:37:02;1.20;;;1.10;;
9076;SDS011;4574;51.072;17.174;2023-07-20T11:39:34;1.67;;;1.30;;
9076;SDS011;4574;51.072;17.174;2023-07-20T11:42:03;1.00;;;1.00;;
9076;SDS011;4574;51.072;17.174;2023-07-20T11:44:34;1.03;;;0.93;;
9076;SDS011;4574;51.072;17.174;2023-07-20T11:47:03;3.90;;;1.00;;
9076;SDS011;4574;51.072;17.174;2023-07-20T11:49:34;1.93;;;0.87;;
9076;SDS011;4574;51.072;17.174;2023-07-20T11:52:05;1.20;;;1.20;;
9076;SDS011;4574;51.072;17.174;2023-07-20T11:54:35;1.20;;;0.80;;
9076;SDS011;4574;51.072;17.174;2023-07-20T11:57:05;2.63;;;1.17;;
9076;SDS011;4574;51.072;17.174;2023-07-20T11:59:35;1.97;;;1.30;;
9076;SDS011;4574;51.072;17.174;2023-07-20T12:02:05;1.90;;;1.20;;
9076;SDS011;4574;51.072;17.174;2023-07-20T12:04:34;1.77;;;1.67;;
9076;SDS011;4574;51.072;17.174;2023-07-20T12:07:03;1.40;;;1.30;;
9076;SDS011;4574;51.072;17.174;2023-07-20T12:09:31;1.77;;;1.67;;
9076;SDS011;4574;51.072;17.174;2023-07-20T12:12:18;5.20;;;1.80;;
9076;SDS011;4574;51.072;17.174;2023-07-20T12:14:48;2.73;;;2.50;;
9076;SDS011;4574;51.072;17.174;2023-07-20T12:17:17;2.57;;;1.80;;
9076;SDS011;4574;51.072;17.174;2023-07-20T12:19:46;1.40;;;1.40;;
9076;SDS011;4574;51.072;17.174;2023-07-20T12:22:15;1.77;;;1.67;;
9076;SDS011;4574;51.072;17.174;2023-07-20T12:24:43;4.70;;;1.83;;
9076;SDS011;4574;51.072;17.174;2023-07-20T12:27:13;1.73;;;1.63;;
9076;SDS011;4574;51.072;17.174;2023-07-20T12:29:44;2.07;;;1.97;;
9076;SDS011;4574;51.072;17.174;2023-07-20T12:32:15;2.37;;;2.03;;
9076;SDS011;4574;51.072;17.174;2023-07-20T12:34:43;3.17;;;2.60;;
9076;SDS011;4574;51.072;17.174;2023-07-20T12:37:14;1.90;;;1.80;;
9076;SDS011;4574;51.072;17.174;2023-07-20T12:39:46;3.77;;;2.27;;
9076;SDS011;4574;51.072;17.174;2023-07-20T12:42:14;2.43;;;2.23;;
9076;SDS011;4574;51.072;17.174;2023-07-20T12:44:43;1.70;;;1.60;;
9076;SDS011;4574;51.072;17.174;2023-07-20T12:47:12;1.90;;;1.73;;
9076;SDS011;4574;51.072;17.174;2023-07-20T12:49:42;2.10;;;1.70;;
9076;SDS011;4574;51.072;17.174;2023-07-20T12:52:12;2.43;;;1.67;;
9076;SDS011;4574;51.072;17.174;2023-07-20T12:54:41;2.53;;;1.83;;
9076;SDS011;4574;51.072;17.174;2023-07-20T12:57:09;1.37;;;1.27;;
9076;SDS011;4574;51.072;17.174;2023-07-20T12:59:38;1.40;;;1.30;;
9076;SDS011;4574;51.072;17.174;2023-07-20T13:02:07;1.97;;;1.47;;
9076;SDS011;4574;51.072;17.174;2023-07-20T13:04:36;1.30;;;1.20;;
9076;SDS011;4574;51.072;17.174;2023-07-20T13:07:07;1.70;;;1.60;;
9076;SDS011;4574;51.072;17.174;2023-07-20T13:09:40;1.90;;;1.47;;
9076;SDS011;4574;51.072;17.174;2023-07-20T13:12:09;1.80;;;1.20;;
9076;SDS011;4574;51.072;17.174;2023-07-20T13:14:37;2.73;;;1.43;;
9076;SDS011;4574;51.072;17.174;2023-07-20T13:17:06;1.40;;;1.30;;
9076;SDS011;4574;51.072;17.174;2023-07-20T13:19:35;1.23;;;1.10;;
9076;SDS011;4574;51.072;17.174;2023-07-20T13:22:04;1.23;;;1.13;;
9076;SDS011;4574;51.072;17.174;2023-07-20T13:24:34;0.93;;;0.80;;
9076;SDS011;4574;51.072;17.174;2023-07-20T13:27:02;1.17;;;1.13;;
9076;SDS011;4574;51.072;17.174;2023-07-20T13:29:31;3.70;;;1.10;;
9076;SDS011;4574;51.072;17.174;2023-07-20T13:32:01;1.67;;;1.10;;
9076;SDS011;4574;51.072;17.174;2023-07-20T13:34:32;0.90;;;0.90;;
9076;SDS011;4574;51.072;17.174;2023-07-20T13:37:01;1.00;;;1.00;;
9076;SDS011;4574;51.072;17.174;2023-07-20T13:39:32;1.33;;;1.00;;
9076;SDS011;4574;51.072;17.174;2023-07-20T13:42:00;1.13;;;1.10;;
9076;SDS011;4574;51.072;17.174;2023-07-20T13:44:31;1.10;;;1.10;;
9076;SDS011;4574;51.072;17.174;2023-07-20T13:47:00;1.10;;;0.80;;
9076;SDS011;4574;51.072;17.174;2023-07-20T13:49:32;1.10;;;1.00;;
9076;SDS011;4574;51.072;17.174;2023-07-20T13:52:12;1.80;;;0.90;;
9076;SDS011;4574;51.072;17.174;2023-07-20T13:54:45;2.17;;;0.90;;
9076;SDS011;4574;51.072;17.174;2023-07-20T13:57:16;1.43;;;1.00;;
9076;SDS011;4574;51.072;17.174;2023-07-20T13:59:45;0.90;;;0.90;;
9076;SDS011;4574;51.072;17.174;2023-07-20T14:02:13;1.47;;;0.80;;
9076;SDS011;4574;51.072;17.174;2023-07-20T14:04:45;1.03;;;1.00;;
9076;SDS011;4574;51.072;17.174;2023-07-20T14:07:16;1.20;;;1.10;;
9076;SDS011;4574;51.072;17.174;2023-07-20T14:09:46;0.80;;;0.80;;
9076;SDS011;4574;51.072;17.174;2023-07-20T14:12:18;0.97;;;0.90;;
9076;SDS011;4574;51.072;17.174;2023-07-20T14:14:46;0.93;;;0.93;;
9076;SDS011;4574;51.072;17.174;2023-07-20T14:17:16;1.43;;;1.07;;
9076;SDS011;4574;51.072;17.174;2023-07-20T14:19:44;3.37;;;1.00;;
9076;SDS011;4574;51.072;17.174;2023-07-20T14:22:13;1.13;;;0.80;;
9076;SDS011;4574;51.072;17.174;2023-07-20T14:24:41;1.20;;;1.10;;
9076;SDS011;4574;51.072;17.174;2023-07-20T14:27:11;3.73;;;1.10;;
9076;SDS011;4574;51.072;17.174;2023-07-20T14:29:39;0.90;;;0.90;;
9076;SDS011;4574;51.072;17.174;2023-07-20T14:32:08;1.10;;;1.00;;
9076;SDS011;4574;51.072;17.174;2023-07-20T14:34:37;0.90;;;0.90;;
9076;SDS011;4574;51.072;17.174;2023-07-20T14:37:07;1.63;;;1.00;;
9076;SDS011;4574;51.072;17.174;2023-07-20T14:39:35;0.80;;;0.80;;
9076;SDS011;4574;51.072;17.174;2023-07-20T14:42:04;1.37;;;1.27;;
9076;SDS011;4574;51.072;17.174;2023-07-20T14:44:35;1.10;;;1.00;;
9076;SDS011;4574;51.072;17.174;2023-07-20T14:47:03;1.40;;;1.30;;
9076;SDS011;4574;51.072;17.174;2023-07-20T14:49:40;1.63;;;1.10;;
9076;SDS011;4574;51.072;17.174;2023-07-20T14:52:09;0.87;;;0.87;;
9076;SDS011;4574;51.072;17.174;2023-07-20T14:54:42;0.90;;;0.90;;
9076;SDS011;4574;51.072;17.174;2023-07-20T14:57:10;0.90;;;0.90;;
9076;SDS011;4574;51.072;17.174;2023-07-20T14:59:43;1.10;;;1.07;;
9076;SDS011;4574;51.072;17.174;2023-07-20T15:02:11;2.30;;;0.80;;
9076;SDS011;4574;51.072;17.174;2023-07-20T15:04:45;2.40;;;0.90;;
9076;SDS011;4574;51.072;17.174;2023-07-20T15:07:14;0.70;;;0.70;;
9076;SDS011;4574;51.072;17.174;2023-07-20T15:09:42;1.10;;;1.10;;
9076;SDS011;4574;51.072;17.174;2023-07-20T15:12:12;0.80;;;0.80;;
9076;SDS011;4574;51.072;17.174;2023-07-20T15:14:41;1.70;;;0.90;;
9076;SDS011;4574;51.072;17.174;2023-07-20T15:17:12;0.80;;;0.80;;
9076;SDS011;4574;51.072;17.174;2023-07-20T15:19:40;0.90;;;0.90;;
9076;SDS011;4574;51.072;17.174;2023-07-20T15:22:09;2.33;;;1.17;;
9076;SDS011;4574;51.072;17.174;2023-07-20T15:24:38;0.80;;;0.80;;
9076;SDS011;4574;51.072;17.174;2023-07-20T15:27:08;2.20;;;0.80;;
9076;SDS011;4574;51.072;17.174;2023-07-20T15:29:36;1.07;;;0.80;;